Time;durP1;ratioP1;P1;durP2;ratioP2;P2;SDS_P1;SDS_P2;PMS_P1;PMS_P2;Temp;Humidity;BMP_temperature;BMP_pressure;BME280_temperature;BME280_humidity;BME280_pressure;Samples;Min_cycle;Max_cycle;Signal;HPM_P1;HPM_P2
2022/08/16 00:01:17;;;;;;;20.60;12.32;;;21.80;99.90;;;;;;5091860;28;20478;-64
2022/08/16 00:03:44;;;;;;;14.10;11.32;;;21.70;99.90;;;;;;5091939;28;20046;-64
2022/08/16 00:06:10;;;;;;;16.30;11.30;;;21.70;99.90;;;;;;5091788;28;20032;-63
2022/08/16 00:08:36;;;;;;;13.80;11.52;;;21.70;99.90;;;;;;5091664;28;20051;-63
2022/08/16 00:11:07;;;;;;;13.10;11.32;;;21.60;99.90;;;;;;5089842;28;20020;-63
2022/08/16 00:13:34;;;;;;;15.13;12.18;;;21.60;99.90;;;;;;5091539;28;20134;-63
2022/08/16 00:15:59;;;;;;;13.13;11.30;;;21.60;99.90;;;;;;5091469;28;20484;-63
2022/08/16 00:18:25;;;;;;;17.83;12.27;;;21.40;99.90;;;;;;5091588;28;20082;-63
2022/08/16 00:20:51;;;;;;;16.50;11.95;;;21.40;99.90;;;;;;5091514;28;20107;-64
2022/08/16 00:23:16;;;;;;;17.27;12.27;;;21.30;99.90;;;;;;5091034;28;20569;-63
2022/08/16 00:25:43;;;;;;;12.13;10.85;;;21.30;99.90;;;;;;5091612;28;20049;-63
2022/08/16 00:28:08;;;;;;;16.98;11.35;;;21.30;99.90;;;;;;5092040;28;20020;-63
2022/08/16 00:30:34;;;;;;;13.30;11.10;;;21.30;99.90;;;;;;5091149;28;20027;-63
2022/08/16 00:33:00;;;;;;;16.83;12.00;;;21.30;99.90;;;;;;5090953;28;20036;-63
2022/08/16 00:35:31;;;;;;;13.70;12.27;;;21.20;99.90;;;;;;5089646;28;20425;-62
2022/08/16 00:37:58;;;;;;;17.63;12.27;;;21.10;99.90;;;;;;5091330;28;20388;-63
2022/08/16 00:40:43;;;;;;;15.98;12.50;;;21.00;99.90;;;;;;5091644;28;20376;-63
2022/08/16 00:43:25;;;;;;;13.55;11.65;;;21.10;99.90;;;;;;5091010;28;20107;-63
2022/08/16 00:46:09;;;;;;;14.27;12.23;;;21.10;99.90;;;;;;5091365;28;20031;-63
2022/08/16 00:48:35;;;;;;;13.40;12.00;;;21.00;99.90;;;;;;5091407;28;20556;-63
2022/08/16 00:51:01;;;;;;;14.20;12.68;;;20.90;99.90;;;;;;5091008;28;20031;-63
2022/08/16 00:53:27;;;;;;;16.30;12.18;;;20.90;99.90;;;;;;5091158;28;20092;-63
2022/08/16 00:55:57;;;;;;;14.45;12.98;;;20.90;99.90;;;;;;5090823;28;20059;-63
2022/08/16 00:58:27;;;;;;;16.17;12.73;;;20.80;99.90;;;;;;5089781;28;20105;-62
2022/08/16 01:00:54;;;;;;;14.45;12.93;;;20.80;99.90;;;;;;5090893;28;20036;-63
2022/08/16 01:03:22;;;;;;;15.93;13.90;;;20.80;99.90;;;;;;5091084;28;20035;-63
2022/08/16 01:05:48;;;;;;;15.43;13.80;;;20.80;99.90;;;;;;5091235;28;20028;-63
2022/08/16 01:08:17;;;;;;;13.20;11.82;;;20.80;99.90;;;;;;5093073;28;20054;-62
2022/08/16 01:10:42;;;;;;;16.40;13.40;;;20.80;99.90;;;;;;5094193;28;20027;-62
2022/08/16 01:13:18;;;;;;;19.60;13.60;;;20.70;99.90;;;;;;5094467;28;20119;-62
2022/08/16 01:15:51;;;;;;;15.93;13.77;;;20.60;99.90;;;;;;5094565;28;20031;-64
2022/08/16 01:18:20;;;;;;;22.38;13.70;;;20.60;99.90;;;;;;5094682;28;20028;-63
2022/08/16 01:21:08;;;;;;;16.73;15.00;;;20.50;99.90;;;;;;5094376;28;20062;-63
2022/08/16 01:24:02;;;;;;;21.23;13.93;;;20.40;99.90;;;;;;5093080;28;20095;-63
2022/08/16 01:26:30;;;;;;;15.27;13.68;;;20.30;99.90;;;;;;5094059;28;20074;-62
2022/08/16 01:28:58;;;;;;;17.88;15.30;;;20.30;99.90;;;;;;5094289;28;20126;-63
2022/08/16 01:31:27;;;;;;;18.25;14.18;;;20.20;99.90;;;;;;5092639;28;20455;-62
2022/08/16 01:33:54;;;;;;;17.13;14.40;;;20.20;99.90;;;;;;5093896;28;20036;-63
2022/08/16 01:36:20;;;;;;;17.80;15.25;;;20.20;99.90;;;;;;5094087;28;20027;-63
2022/08/16 01:38:48;;;;;;;17.02;15.32;;;20.30;99.90;;;;;;5094071;28;20040;-63
2022/08/16 01:41:21;;;;;;;16.30;14.60;;;20.30;99.90;;;;;;5094399;28;20024;-62
2022/08/16 01:43:50;;;;;;;16.20;14.57;;;20.30;99.90;;;;;;5094013;28;20036;-62
2022/08/16 01:46:58;;;;;;;20.75;14.95;;;20.40;99.90;;;;;;5093913;28;20067;-63
2022/08/16 01:49:31;;;;;;;16.17;13.55;;;20.40;99.90;;;;;;5084368;28;20036;-63
2022/08/16 01:52:00;;;;;;;20.52;13.55;;;20.40;99.90;;;;;;5094084;28;20395;-62
2022/08/16 01:54:26;;;;;;;19.38;14.82;;;20.40;99.90;;;;;;5093511;28;20046;-62
2022/08/16 01:56:52;;;;;;;16.42;14.90;;;20.40;99.90;;;;;;5093558;28;20017;-63
2022/08/16 01:59:18;;;;;;;20.13;15.75;;;20.30;99.90;;;;;;5093671;28;20503;-62
2022/08/16 02:01:47;;;;;;;18.00;15.40;;;20.10;99.90;;;;;;5093929;28;20099;-63
2022/08/16 02:04:13;;;;;;;18.02;15.40;;;20.10;99.90;;;;;;5093417;28;20040;-62
2022/08/16 02:06:40;;;;;;;17.25;15.45;;;20.00;99.90;;;;;;5093679;28;20073;-62
2022/08/16 02:09:08;;;;;;;19.67;16.17;;;19.90;99.90;;;;;;5093713;28;20028;-63
2022/08/16 02:11:36;;;;;;;19.58;15.18;;;19.80;99.90;;;;;;5093191;28;20199;-62
2022/08/16 02:14:21;;;;;;;17.80;15.90;;;19.80;99.90;;;;;;5093455;28;20035;-62
2022/08/16 02:16:47;;;;;;;21.52;16.10;;;19.80;99.90;;;;;;5093179;28;20016;-62
2022/08/16 02:19:13;;;;;;;20.05;16.98;;;19.70;99.90;;;;;;5092208;28;20046;-62
2022/08/16 02:21:51;;;;;;;18.20;15.80;;;19.70;99.90;;;;;;5092954;28;20020;-63
2022/08/16 02:24:17;;;;;;;17.90;16.10;;;19.80;99.90;;;;;;5093288;28;20101;-63
2022/08/16 02:26:43;;;;;;;20.10;17.95;;;19.70;99.90;;;;;;5093223;28;20042;-63
2022/08/16 02:29:08;;;;;;;19.90;17.88;;;19.70;99.90;;;;;;5092843;28;20480;-62
2022/08/16 02:31:34;;;;;;;21.65;17.15;;;19.70;99.90;;;;;;5092981;28;20028;-63
2022/08/16 02:34:00;;;;;;;25.17;18.00;;;19.70;99.90;;;;;;5091587;28;20520;-63
2022/08/16 02:36:26;;;;;;;21.23;17.98;;;19.60;99.90;;;;;;5092757;28;20028;-63
2022/08/16 02:38:52;;;;;;;21.92;17.65;;;19.60;99.90;;;;;;5092999;28;20038;-63
2022/08/16 02:41:18;;;;;;;19.90;17.58;;;19.60;99.90;;;;;;5093119;28;20055;-64
2022/08/16 02:43:47;;;;;;;21.77;18.23;;;19.60;99.90;;;;;;5092821;28;20388;-62
2022/08/16 02:46:12;;;;;;;21.13;19.05;;;19.50;99.90;;;;;;5091502;28;20097;-62
2022/08/16 02:48:38;;;;;;;23.50;19.70;;;19.50;99.90;;;;;;5092855;28;20431;-62
2022/08/16 02:51:06;;;;;;;22.40;18.95;;;19.40;99.90;;;;;;5092500;28;20031;-63
2022/08/16 02:53:33;;;;;;;22.42;18.90;;;19.40;99.90;;;;;;5091564;28;20130;-64
2022/08/16 02:55:59;;;;;;;26.38;19.85;;;19.40;99.90;;;;;;5092749;28;20528;-63
2022/08/16 02:58:26;;;;;;;24.25;19.63;;;19.30;99.90;;;;;;5092683;28;20028;-63
2022/08/16 03:00:53;;;;;;;25.50;21.00;;;19.30;99.90;;;;;;5092832;28;20051;-62
2022/08/16 03:03:19;;;;;;;25.77;20.40;;;19.20;99.90;;;;;;5092347;28;20111;-62
2022/08/16 03:05:46;;;;;;;28.17;21.45;;;19.20;99.90;;;;;;5092555;28;20024;-62
2022/08/16 03:08:12;;;;;;;23.23;20.85;;;19.10;99.90;;;;;;5093013;28;20035;-62
2022/08/16 03:10:48;;;;;;;24.63;22.00;;;19.10;99.90;;;;;;5091002;28;20469;-63
2022/08/16 03:13:16;;;;;;;24.13;21.20;;;19.10;99.90;;;;;;5092423;28;20032;-63
2022/08/16 03:15:43;;;;;;;24.17;21.10;;;19.10;99.90;;;;;;5092397;28;20024;-63
2022/08/16 03:18:09;;;;;;;23.70;21.25;;;19.00;99.90;;;;;;5092356;28;20031;-63
2022/08/16 03:20:35;;;;;;;23.17;20.73;;;18.90;99.90;;;;;;5092003;28;20020;-62
2022/08/16 03:23:02;;;;;;;26.58;21.60;;;18.90;99.90;;;;;;5092130;28;20107;-63
2022/08/16 03:25:28;;;;;;;25.58;22.10;;;18.90;99.90;;;;;;5092328;28;20042;-62
2022/08/16 03:27:54;;;;;;;26.48;22.98;;;18.80;99.90;;;;;;5092422;28;20020;-62
2022/08/16 03:30:25;;;;;;;30.95;23.50;;;18.70;99.90;;;;;;5092185;28;20024;-62
2022/08/16 03:32:51;;;;;;;25.38;22.70;;;18.70;99.90;;;;;;5090677;28;20032;-62
2022/08/16 03:35:18;;;;;;;28.48;23.10;;;18.70;99.90;;;;;;5091948;28;20028;-65
2022/08/16 03:37:45;;;;;;;25.58;22.88;;;18.60;99.90;;;;;;5092169;28;20430;-62
2022/08/16 03:40:13;;;;;;;27.13;24.20;;;18.60;99.90;;;;;;5092316;28;20489;-62
2022/08/16 03:42:39;;;;;;;28.23;24.23;;;18.60;99.90;;;;;;5091900;28;20035;-62
2022/08/16 03:45:06;;;;;;;27.92;23.95;;;18.60;99.90;;;;;;5092311;28;20051;-62
2022/08/16 03:47:33;;;;;;;28.65;24.08;;;18.50;99.90;;;;;;5090467;28;20036;-62
2022/08/16 03:49:59;;;;;;;29.10;24.35;;;18.50;99.90;;;;;;5090792;28;20405;-61
2022/08/16 03:52:25;;;;;;;31.70;25.42;;;18.50;99.90;;;;;;5091755;28;20036;-62
2022/08/16 03:54:52;;;;;;;31.20;24.45;;;18.50;99.90;;;;;;5091445;28;20032;-63
2022/08/16 03:57:18;;;;;;;26.65;23.88;;;18.40;99.90;;;;;;5091701;28;20039;-63
2022/08/16 03:59:43;;;;;;;31.80;25.98;;;18.40;99.90;;;;;;5090257;28;20044;-62
2022/08/16 04:02:11;;;;;;;28.48;25.20;;;18.40;99.90;;;;;;5091638;28;20024;-62
2022/08/16 04:04:37;;;;;;;31.73;25.48;;;18.40;99.90;;;;;;5091718;28;20117;-62
2022/08/16 04:07:05;;;;;;;27.40;24.45;;;18.40;99.90;;;;;;5091525;28;20043;-62
2022/08/16 04:09:32;;;;;;;29.58;25.85;;;18.40;99.90;;;;;;5092183;28;20050;-62
2022/08/16 04:11:58;;;;;;;31.00;26.33;;;18.40;99.90;;;;;;5091664;28;20118;-62
2022/08/16 04:14:25;;;;;;;29.52;26.10;;;18.40;99.90;;;;;;5091328;28;20166;-62
2022/08/16 04:16:51;;;;;;;29.23;26.10;;;18.40;99.90;;;;;;5091378;28;20028;-62
2022/08/16 04:19:16;;;;;;;28.88;25.80;;;18.40;99.90;;;;;;5091527;28;20115;-62
2022/08/16 04:21:43;;;;;;;29.92;26.67;;;18.40;99.90;;;;;;5091350;28;20440;-62
2022/08/16 04:24:08;;;;;;;31.10;26.67;;;18.30;99.90;;;;;;5091479;28;20036;-62
2022/08/16 04:26:34;;;;;;;28.30;25.30;;;18.30;99.90;;;;;;5091274;28;20535;-62
2022/08/16 04:29:01;;;;;;;34.75;26.80;;;18.30;99.90;;;;;;5091698;28;20075;-62
2022/08/16 04:31:26;;;;;;;28.58;25.48;;;18.20;99.90;;;;;;5091573;28;20032;-62
2022/08/16 04:33:52;;;;;;;28.95;25.85;;;18.30;99.90;;;;;;5090446;28;20511;-62
2022/08/16 04:36:18;;;;;;;29.55;26.38;;;18.30;99.90;;;;;;5091907;28;20020;-62
2022/08/16 04:38:44;;;;;;;30.95;25.58;;;18.30;99.90;;;;;;5091748;28;20020;-62
2022/08/16 04:41:09;;;;;;;32.38;27.33;;;18.30;99.90;;;;;;5091063;28;20047;-62
2022/08/16 04:43:37;;;;;;;32.75;25.23;;;18.40;99.90;;;;;;5095151;28;20063;-62
2022/08/16 04:46:04;;;;;;;29.35;25.27;;;18.40;99.90;;;;;;5095276;28;20032;-63
2022/08/16 04:48:29;;;;;;;30.88;25.42;;;18.40;99.90;;;;;;5095617;28;20030;-62
2022/08/16 04:50:55;;;;;;;27.20;24.30;;;18.40;99.90;;;;;;5093975;28;20552;-67
2022/08/16 04:53:21;;;;;;;28.20;24.55;;;18.50;99.90;;;;;;5095373;28;20085;-62
2022/08/16 04:55:47;;;;;;;27.88;24.88;;;18.40;99.90;;;;;;5093413;28;20030;-63
2022/08/16 04:58:13;;;;;;;28.40;25.30;;;18.50;99.90;;;;;;5094855;28;20040;-63
2022/08/16 05:00:39;;;;;;;30.05;26.88;;;18.50;99.90;;;;;;5094412;28;20121;-62
2022/08/16 05:03:08;;;;;;;29.73;24.88;;;18.50;99.90;;;;;;5094017;28;20025;-62
2022/08/16 05:05:37;;;;;;;31.48;25.38;;;18.60;99.90;;;;;;5094451;28;20473;-60
2022/08/16 05:08:04;;;;;;;31.40;25.83;;;18.60;99.90;;;;;;5092901;28;20062;-60
2022/08/16 05:10:31;;;;;;;31.08;25.30;;;18.60;99.90;;;;;;5093847;28;20052;-60
2022/08/16 05:12:59;;;;;;;27.77;24.83;;;18.60;99.90;;;;;;5093881;28;20111;-60
2022/08/16 05:15:25;;;;;;;28.52;25.45;;;18.70;99.90;;;;;;5094193;28;20471;-60
2022/08/16 05:17:51;;;;;;;28.33;25.23;;;18.70;99.90;;;;;;5094245;28;20036;-60
2022/08/16 05:20:17;;;;;;;29.92;24.98;;;18.70;99.90;;;;;;5093993;28;20046;-60
2022/08/16 05:22:43;;;;;;;30.80;24.20;;;18.80;99.90;;;;;;5093882;28;20027;-60
2022/08/16 05:25:10;;;;;;;29.48;24.25;;;18.90;99.90;;;;;;5093725;28;20056;-60
2022/08/16 05:27:36;;;;;;;28.23;23.70;;;19.00;99.90;;;;;;5093921;28;20093;-60
2022/08/16 05:30:04;;;;;;;28.17;23.40;;;19.10;99.90;;;;;;5093561;28;20077;-60
2022/08/16 05:32:30;;;;;;;27.45;23.20;;;19.10;99.90;;;;;;5093618;28;20046;-61
2022/08/16 05:34:56;;;;;;;27.38;23.42;;;19.10;99.90;;;;;;5093760;28;20403;-60
2022/08/16 05:37:23;;;;;;;26.92;22.45;;;19.10;99.90;;;;;;5093522;28;20028;-60
2022/08/16 05:39:49;;;;;;;26.88;23.55;;;19.10;99.90;;;;;;5094061;28;20555;-60
2022/08/16 05:42:15;;;;;;;31.92;23.45;;;19.00;99.90;;;;;;5093300;28;20032;-61
2022/08/16 05:44:40;;;;;;;25.42;22.73;;;19.00;99.90;;;;;;5093390;28;20039;-60
2022/08/16 05:47:06;;;;;;;25.20;22.02;;;19.00;99.90;;;;;;5093194;28;20359;-60
2022/08/16 05:49:32;;;;;;;25.90;21.33;;;19.00;99.90;;;;;;5092435;28;20484;-60
2022/08/16 05:51:58;;;;;;;26.30;21.63;;;19.00;99.90;;;;;;5093186;28;20024;-60
2022/08/16 05:54:26;;;;;;;27.60;22.17;;;19.10;99.90;;;;;;5093232;28;20035;-60
2022/08/16 05:56:53;;;;;;;31.05;22.67;;;19.10;99.90;;;;;;5093309;28;20073;-61
2022/08/16 05:59:19;;;;;;;27.70;22.15;;;19.20;99.90;;;;;;5093489;28;20048;-60
2022/08/16 06:01:45;;;;;;;26.83;21.38;;;19.30;99.90;;;;;;5093093;28;20085;-60
2022/08/16 06:04:12;;;;;;;34.22;20.83;;;19.40;99.90;;;;;;5092799;28;20039;-60
2022/08/16 06:06:39;;;;;;;32.10;21.40;;;19.60;99.90;;;;;;5093013;28;20374;-60
2022/08/16 06:09:05;;;;;;;29.35;20.33;;;19.70;99.90;;;;;;5092838;28;20089;-61
2022/08/16 06:11:30;;;;;;;25.13;20.13;;;19.80;99.90;;;;;;5092705;28;20028;-60
2022/08/16 06:13:56;;;;;;;26.15;19.30;;;19.90;99.90;;;;;;5092618;28;20388;-61
2022/08/16 06:16:22;;;;;;;26.27;19.85;;;20.10;99.90;;;;;;5092495;28;20024;-61
2022/08/16 06:18:47;;;;;;;25.83;20.10;;;20.20;99.90;;;;;;5092816;28;20477;-60
2022/08/16 06:21:13;;;;;;;23.05;19.17;;;20.30;99.90;;;;;;5092453;28;20090;-61
2022/08/16 06:23:39;;;;;;;21.48;19.05;;;20.40;99.90;;;;;;5091210;28;20397;-61
2022/08/16 06:26:06;;;;;;;22.02;18.42;;;20.50;99.90;;;;;;5092419;28;20020;-60
2022/08/16 06:28:32;;;;;;;24.77;18.35;;;20.50;99.90;;;;;;5093045;28;20039;-60
2022/08/16 06:30:57;;;;;;;24.48;18.33;;;20.50;99.90;;;;;;5092943;28;20103;-61
2022/08/16 06:33:23;;;;;;;19.77;17.42;;;20.60;99.90;;;;;;5091155;28;20052;-62
2022/08/16 06:35:53;;;;;;;28.45;18.23;;;20.80;99.90;;;;;;5092168;28;20077;-62
2022/08/16 06:38:18;;;;;;;25.20;17.15;;;20.80;99.90;;;;;;5092607;28;20023;-63
2022/08/16 06:40:44;;;;;;;19.65;16.20;;;20.80;99.90;;;;;;5092383;28;20016;-62
2022/08/16 06:43:10;;;;;;;20.27;16.48;;;20.90;99.90;;;;;;5092181;28;20024;-62
2022/08/16 06:45:41;;;;;;;23.83;16.88;;;20.90;99.90;;;;;;5092177;28;20032;-62
2022/08/16 06:48:07;;;;;;;24.48;15.93;;;21.10;99.90;;;;;;5092443;28;20046;-63
2022/08/16 06:50:34;;;;;;;19.23;15.90;;;21.30;99.90;;;;;;5090624;28;20489;-63
2022/08/16 06:53:00;;;;;;;22.35;15.38;;;21.30;99.90;;;;;;5091784;28;20050;-63
2022/08/16 06:55:26;;;;;;;16.77;15.02;;;21.40;99.90;;;;;;5091605;28;20103;-63
2022/08/16 06:57:52;;;;;;;16.92;14.65;;;21.60;99.90;;;;;;5091996;28;20392;-63
2022/08/16 07:00:18;;;;;;;18.08;14.95;;;21.80;99.90;;;;;;5091737;28;20046;-63
2022/08/16 07:02:45;;;;;;;17.23;13.85;;;22.10;99.90;;;;;;5091582;28;20028;-63
2022/08/16 07:05:14;;;;;;;16.65;13.18;;;22.30;99.90;;;;;;5091071;28;20510;-64
2022/08/16 07:07:42;;;;;;;14.88;13.25;;;22.60;99.90;;;;;;5092165;28;20036;-64
2022/08/16 07:10:09;;;;;;;18.35;12.70;;;22.60;99.90;;;;;;5092032;28;20224;-63
2022/08/16 07:12:35;;;;;;;16.00;13.00;;;22.60;99.90;;;;;;5091629;28;20493;-63
2022/08/16 07:15:04;;;;;;;15.57;12.88;;;22.60;99.90;;;;;;5090265;28;20028;-63
2022/08/16 07:17:31;;;;;;;16.20;12.73;;;22.40;99.90;;;;;;5091698;28;20028;-62
2022/08/16 07:19:58;;;;;;;15.43;12.38;;;22.30;99.90;;;;;;5092020;28;20476;-62
2022/08/16 07:22:24;;;;;;;15.57;12.63;;;22.30;99.90;;;;;;5091750;28;20095;-61
2022/08/16 07:24:50;;;;;;;17.73;13.15;;;22.40;99.90;;;;;;5091312;28;20027;-61
2022/08/16 07:27:15;;;;;;;16.88;12.82;;;22.50;99.90;;;;;;5091337;28;20028;-61
2022/08/16 07:29:41;;;;;;;18.58;12.43;;;23.10;99.90;;;;;;5090252;28;20048;-61
2022/08/16 07:32:07;;;;;;;15.25;11.93;;;23.90;99.90;;;;;;5091163;28;20035;-64
2022/08/16 07:34:33;;;;;;;13.57;10.93;;;24.50;99.90;;;;;;5084286;28;20024;-61
2022/08/16 07:37:02;;;;;;;11.30;10.10;;;24.70;99.90;;;;;;5089448;28;20028;-62
2022/08/16 07:39:28;;;;;;;11.38;10.20;;;24.90;99.90;;;;;;5089437;28;20027;-62
2022/08/16 07:41:54;;;;;;;13.77;9.80;;;25.10;99.90;;;;;;5090349;28;20376;-62
2022/08/16 07:44:20;;;;;;;10.65;8.40;;;25.70;99.90;;;;;;5089849;28;20028;-62
2022/08/16 07:46:46;;;;;;;9.40;8.40;;;26.60;99.90;;;;;;5089601;28;20032;-62
2022/08/16 07:49:11;;;;;;;11.70;8.10;;;27.20;99.90;;;;;;5088528;28;20028;-62
2022/08/16 07:51:37;;;;;;;9.93;7.53;;;27.70;99.90;;;;;;5089410;28;20078;-62
2022/08/16 07:54:05;;;;;;;11.63;8.27;;;27.10;99.90;;;;;;5090073;28;20040;-62
2022/08/16 07:56:31;;;;;;;19.23;9.63;;;25.90;99.90;;;;;;5088384;28;20020;-61
2022/08/16 07:58:57;;;;;;;10.10;7.82;;;25.30;99.90;;;;;;5089130;28;20078;-62
2022/08/16 08:01:23;;;;;;;9.98;7.88;;;25.10;99.90;;;;;;5089218;28;20451;-61
2022/08/16 08:03:50;;;;;;;34.70;9.98;;;25.10;99.90;;;;;;5088086;28;20426;-61
2022/08/16 08:06:21;;;;;;;10.88;6.72;;;25.60;99.90;;;;;;5089095;28;20451;-62
2022/08/16 08:08:48;;;;;;;10.02;7.40;;;25.70;99.90;;;;;;5089885;28;20024;-62
2022/08/16 08:11:14;;;;;;;11.13;6.80;;;25.40;99.90;;;;;;5089123;28;20093;-61
2022/08/16 08:13:39;;;;;;;7.70;6.90;;;25.50;99.90;;;;;;5089139;28;20118;-61
2022/08/16 08:16:05;;;;;;;13.27;6.38;;;25.60;99.90;;;;;;5091202;28;20099;-62
2022/08/16 08:18:31;;;;;;;8.70;6.03;;;25.80;99.90;;;;;;5092742;28;20324;-62
2022/08/16 08:20:57;;;;;;;7.72;6.47;;;26.70;99.90;;;;;;5094138;28;20495;-62
2022/08/16 08:23:24;;;;;;;12.80;6.47;;;27.50;99.90;;;;;;5094086;28;20362;-62
2022/08/16 08:25:50;;;;;;;7.07;5.00;;;28.00;99.90;;;;;;5093394;28;20551;-63
2022/08/16 08:28:16;;;;;;;7.85;6.07;;;28.40;99.80;;;;;;5094464;28;20137;-64
2022/08/16 08:30:42;;;;;;;6.45;5.80;;;28.40;99.40;;;;;;5093518;28;20028;-64
2022/08/16 08:33:08;;;;;;;13.07;7.07;;;27.80;99.90;;;;;;5093556;28;20606;-64
2022/08/16 08:35:34;;;;;;;9.02;7.10;;;26.70;99.90;;;;;;5093631;28;20473;-64
2022/08/16 08:38:01;;;;;;;14.18;7.45;;;25.90;99.90;;;;;;5093776;28;20377;-63
2022/08/16 08:40:28;;;;;;;11.68;6.85;;;25.60;99.90;;;;;;5092952;28;20032;-63
2022/08/16 08:42:55;;;;;;;7.30;5.85;;;25.80;99.90;;;;;;5093460;28;20028;-63
2022/08/16 08:45:22;;;;;;;10.88;6.18;;;25.90;99.90;;;;;;5092494;28;20099;-63
2022/08/16 08:47:47;;;;;;;8.27;6.15;;;25.70;99.90;;;;;;5092434;28;20508;-63
2022/08/16 08:50:15;;;;;;;6.82;5.90;;;25.80;99.90;;;;;;5091185;28;20028;-64
2022/08/16 08:52:41;;;;;;;9.85;6.05;;;26.30;99.90;;;;;;5092449;28;20024;-63
2022/08/16 08:55:10;;;;;;;9.18;5.85;;;26.60;99.90;;;;;;5092136;28;20024;-63
2022/08/16 08:57:36;;;;;;;8.80;5.78;;;27.00;99.90;;;;;;5092749;28;20063;-63
2022/08/16 09:00:03;;;;;;;9.10;5.10;;;27.20;99.90;;;;;;5093208;28;20067;-63
2022/08/16 09:02:29;;;;;;;7.95;5.40;;;27.00;99.90;;;;;;5093438;28;20032;-64
2022/08/16 09:04:54;;;;;;;6.55;5.60;;;27.50;99.90;;;;;;5092241;28;20081;-63
2022/08/16 09:07:21;;;;;;;10.23;5.57;;;27.60;99.90;;;;;;5093121;28;20034;-63
2022/08/16 09:09:47;;;;;;;6.35;5.43;;;27.20;99.90;;;;;;5093223;28;20020;-64
2022/08/16 09:12:12;;;;;;;7.88;5.55;;;27.00;99.90;;;;;;5092521;28;20093;-63
2022/08/16 09:14:38;;;;;;;7.20;5.97;;;26.80;99.90;;;;;;5093158;28;20488;-63
2022/08/16 09:17:05;;;;;;;9.80;6.22;;;26.70;99.90;;;;;;5090899;28;20048;-63
2022/08/16 09:19:33;;;;;;;6.72;5.55;;;26.70;99.90;;;;;;5093180;28;20056;-63
2022/08/16 09:21:58;;;;;;;9.80;5.50;;;26.80;99.90;;;;;;5092833;28;20020;-63
2022/08/16 09:24:24;;;;;;;7.25;5.38;;;26.70;99.90;;;;;;5092463;28;20038;-63
2022/08/16 09:26:50;;;;;;;6.40;5.05;;;26.90;99.90;;;;;;5092846;28;20032;-64
2022/08/16 09:29:15;;;;;;;8.18;5.55;;;27.30;99.90;;;;;;5092541;28;20071;-63
2022/08/16 09:31:41;;;;;;;8.55;5.38;;;27.40;99.90;;;;;;5091902;28;20377;-64
2022/08/16 09:34:08;;;;;;;10.90;5.28;;;28.00;98.40;;;;;;5092118;28;20032;-63
2022/08/16 09:36:33;;;;;;;7.40;5.68;;;28.30;98.20;;;;;;5092391;28;20028;-64
2022/08/16 09:39:00;;;;;;;6.47;4.80;;;28.50;97.10;;;;;;5092137;28;20392;-64
2022/08/16 09:41:26;;;;;;;9.57;4.90;;;28.80;96.20;;;;;;5092100;28;20153;-64
2022/08/16 09:43:52;;;;;;;8.27;4.70;;;28.80;96.40;;;;;;5091792;28;20413;-64
2022/08/16 09:46:19;;;;;;;9.02;4.90;;;29.60;94.10;;;;;;5091914;28;20012;-64
2022/08/16 09:48:45;;;;;;;7.25;5.10;;;29.30;94.00;;;;;;5090706;28;20532;-64
2022/08/16 09:51:12;;;;;;;6.85;4.78;;;29.60;93.60;;;;;;5091902;28;20036;-64
2022/08/16 09:53:38;;;;;;;7.40;4.85;;;29.80;93.10;;;;;;5092035;28;20051;-64
2022/08/16 09:56:15;;;;;;;8.57;5.57;;;30.10;92.90;;;;;;5091893;28;20024;-62
2022/08/16 09:58:40;;;;;;;4.45;3.97;;;29.50;92.50;;;;;;5090474;28;20090;-64
2022/08/16 10:01:06;;;;;;;12.10;5.03;;;30.10;92.00;;;;;;5091553;28;20094;-63
2022/08/16 10:03:32;;;;;;;9.07;4.75;;;30.60;91.40;;;;;;5091331;28;20027;-64
2022/08/16 10:05:57;;;;;;;5.05;4.53;;;30.90;90.40;;;;;;5091396;28;20020;-64
2022/08/16 10:08:23;;;;;;;8.35;4.22;;;30.90;90.10;;;;;;5092055;28;20503;-63
2022/08/16 10:13:33;;;;;;;8.30;4.25;;;30.60;90.60;;;;;;5092113;28;20042;-63
2022/08/16 10:15:59;;;;;;;6.18;3.80;;;31.00;89.30;;;;;;5091045;28;20020;-63
2022/08/16 10:18:29;;;;;;;6.57;4.20;;;29.90;86.20;;;;;;5091422;28;20105;-63
2022/08/16 10:20:57;;;;;;;4.63;3.53;;;29.20;89.40;;;;;;5091715;28;20081;-63
2022/08/16 10:23:23;;;;;;;6.07;3.75;;;28.70;90.30;;;;;;5091197;28;20058;-63
2022/08/16 10:25:50;;;;;;;7.20;3.72;;;28.80;90.40;;;;;;5091347;28;20032;-64
2022/08/16 10:28:16;;;;;;;9.27;4.00;;;28.60;91.10;;;;;;5091476;28;20377;-63
2022/08/16 10:30:42;;;;;;;8.88;4.50;;;28.70;91.30;;;;;;5090620;28;20089;-63
2022/08/16 10:33:10;;;;;;;7.70;4.15;;;28.40;92.40;;;;;;5090986;28;20032;-65
2022/08/16 10:35:36;;;;;;;7.10;4.47;;;28.00;92.50;;;;;;5091583;28;20027;-64
2022/08/16 10:38:03;;;;;;;10.02;4.65;;;27.60;93.90;;;;;;5091668;28;20103;-63
2022/08/16 10:40:29;;;;;;;5.57;4.10;;;27.40;94.20;;;;;;5090883;28;20035;-64
2022/08/16 10:42:55;;;;;;;9.57;4.15;;;27.30;94.20;;;;;;5090948;28;20388;-65
2022/08/16 10:45:21;;;;;;;7.07;4.20;;;27.10;94.90;;;;;;5091730;28;20097;-65
2022/08/16 10:47:48;;;;;;;8.75;4.00;;;27.00;95.00;;;;;;5090865;28;20384;-65
2022/08/16 10:50:14;;;;;;;7.95;3.88;;;27.10;94.90;;;;;;5090547;28;20462;-64
2022/08/16 10:52:39;;;;;;;8.68;3.80;;;27.10;94.80;;;;;;5091755;28;20064;-64
2022/08/16 10:55:10;;;;;;;7.03;3.50;;;27.20;93.70;;;;;;5090413;28;20394;-65
2022/08/16 10:57:36;;;;;;;6.05;3.40;;;27.20;93.50;;;;;;5090081;28;20055;-64
2022/08/16 11:00:13;;;;;;;9.73;4.07;;;27.10;93.60;;;;;;5068200;28;20437;-64
2022/08/16 11:02:39;;;;;;;5.13;3.95;;;27.20;93.80;;;;;;5064006;28;20090;-64
2022/08/16 11:05:11;;;;;;;6.30;4.10;;;27.40;93.90;;;;;;5068252;28;20033;-64
2022/08/16 11:07:43;;;;;;;4.57;3.80;;;27.40;94.10;;;;;;5067145;28;20033;-65
2022/08/16 11:10:11;;;;;;;10.45;3.60;;;27.70;92.30;;;;;;5067842;28;20340;-65
2022/08/16 11:12:38;;;;;;;11.65;3.70;;;27.80;91.90;;;;;;5068150;28;20112;-65
2022/08/16 11:15:04;;;;;;;3.88;3.55;;;28.20;92.00;;;;;;5066505;28;20028;-64
2022/08/16 11:17:30;;;;;;;8.25;3.53;;;28.70;90.70;;;;;;5066652;28;20036;-65
2022/08/16 11:19:55;;;;;;;4.05;3.50;;;29.00;90.00;;;;;;5066065;28;20398;-65
2022/08/16 11:22:21;;;;;;;6.22;3.25;;;29.20;89.80;;;;;;5066389;28;20035;-65
2022/08/16 11:24:47;;;;;;;5.97;3.70;;;29.70;85.40;;;;;;5066451;28;20032;-65
2022/08/16 11:27:19;;;;;;;4.38;3.40;;;29.80;83.50;;;;;;5066706;28;20021;-65
2022/08/16 11:29:44;;;;;;;7.70;3.67;;;29.80;83.10;;;;;;5067953;28;20096;-65
2022/08/16 11:32:10;;;;;;;5.32;3.25;;;29.40;82.90;;;;;;5066329;28;20492;-65
2022/08/16 11:34:36;;;;;;;7.35;3.35;;;29.90;83.90;;;;;;5063970;28;20037;-65
2022/08/16 11:37:01;;;;;;;4.18;3.20;;;29.60;81.70;;;;;;5067136;28;20025;-65
2022/08/16 11:39:28;;;;;;;8.50;3.10;;;29.50;82.20;;;;;;5066348;28;20052;-65
2022/08/16 11:41:54;;;;;;;5.57;3.38;;;29.70;83.30;;;;;;5065067;28;20017;-69
2022/08/16 11:44:20;;;;;;;5.45;3.30;;;29.80;82.10;;;;;;5066735;28;20028;-65
2022/08/16 11:46:45;;;;;;;5.40;3.28;;;29.80;81.50;;;;;;5065803;28;20021;-65
2022/08/16 11:49:11;;;;;;;10.68;3.22;;;29.60;83.60;;;;;;5063049;28;20041;-65
2022/08/16 11:51:38;;;;;;;4.25;3.20;;;29.60;84.10;;;;;;5065770;28;20047;-64
2022/08/16 11:54:04;;;;;;;5.78;3.17;;;29.90;83.10;;;;;;5066321;28;20866;-65
2022/08/16 11:56:29;;;;;;;6.20;3.78;;;29.70;81.80;;;;;;5065976;28;20029;-65
2022/08/16 11:58:55;;;;;;;6.05;3.22;;;30.10;81.70;;;;;;5066359;28;20049;-65
2022/08/16 12:01:21;;;;;;;4.95;2.90;;;30.30;81.90;;;;;;5065604;28;20135;-65
2022/08/16 12:03:46;;;;;;;13.43;3.63;;;30.10;82.30;;;;;;5066162;28;20028;-65
2022/08/16 12:06:17;;;;;;;5.22;3.10;;;30.90;80.30;;;;;;5065411;28;20389;-65
2022/08/16 12:08:45;;;;;;;7.87;3.23;;;31.10;80.10;;;;;;5065480;28;20187;-64
2022/08/16 12:11:12;;;;;;;8.18;3.17;;;31.30;78.70;;;;;;5054194;28;20070;-65
2022/08/16 12:13:39;;;;;;;8.05;3.40;;;32.00;76.70;;;;;;5051707;28;20055;-64
2022/08/16 12:16:07;;;;;;;6.03;2.75;;;31.50;76.30;;;;;;5052688;28;20474;-65
2022/08/16 12:18:34;;;;;;;7.18;2.95;;;30.70;77.00;;;;;;5052542;28;20460;-65
2022/08/16 12:20:59;;;;;;;6.47;3.05;;;30.50;76.20;;;;;;5051387;28;20083;-65
2022/08/16 12:23:25;;;;;;;3.50;3.20;;;30.90;76.00;;;;;;5052521;28;20029;-65
2022/08/16 12:25:51;;;;;;;8.02;3.50;;;30.70;75.40;;;;;;5051379;28;20055;-65
2022/08/16 12:28:17;;;;;;;6.03;3.42;;;31.10;77.00;;;;;;5052197;28;20025;-65
2022/08/16 12:30:44;;;;;;;7.40;3.05;;;31.20;77.70;;;;;;5052039;28;20029;-64
2022/08/16 12:33:15;;;;;;;3.63;3.20;;;31.00;75.90;;;;;;5051447;28;20033;-65
2022/08/16 12:35:42;;;;;;;3.40;3.00;;;31.30;74.20;;;;;;5052547;28;20304;-65